Time;durP1;ratioP1;P1;durP2;ratioP2;P2;SDS_P1;SDS_P2;PMS_P1;PMS_P2;Temp;Humidity;BMP_temperature;BMP_pressure;BME280_temperature;BME280_humidity;BME280_pressure;Samples;Min_cycle;Max_cycle;Signal;HPM_P1;HPM_P2
2021/04/13 00:01:36;;;;;;;2.28;1.40;;;0.80;99.90;;;;;;4923224;27;20176;-89
2021/04/13 00:04:10;;;;;;;8.20;1.50;;;0.80;99.90;;;;;;4919618;28;20099;-89
2021/04/13 00:06:40;;;;;;;4.20;1.33;;;0.90;99.90;;;;;;4920632;28;20425;-88
2021/04/13 00:09:12;;;;;;;4.05;1.75;;;0.90;99.90;;;;;;4940070;27;20170;-90
2021/04/13 00:11:36;;;;;;;3.50;1.80;;;0.90;99.90;;;;;;4943637;27;20082;-90
2021/04/13 00:14:00;;;;;;;5.53;2.30;;;0.90;99.90;;;;;;4932653;27;20087;-90
2021/04/13 00:16:27;;;;;;;3.15;1.60;;;0.90;99.90;;;;;;4926873;27;20099;-87
2021/04/13 00:18:52;;;;;;;3.13;2.00;;;1.00;99.90;;;;;;4927026;27;20577;-90
2021/04/13 00:21:18;;;;;;;5.78;1.45;;;1.10;99.90;;;;;;4927583;27;20089;-89
2021/04/13 00:23:44;;;;;;;3.83;1.92;;;1.10;99.90;;;;;;4929551;27;20289;-89
2021/04/13 00:26:10;;;;;;;5.38;2.03;;;1.10;99.90;;;;;;4930203;27;20557;-90
2021/04/13 00:28:43;;;;;;;5.45;2.35;;;1.10;99.90;;;;;;4930348;27;20088;-90
2021/04/13 00:31:08;;;;;;;5.85;2.22;;;1.00;99.90;;;;;;4915924;27;20081;-90
2021/04/13 00:33:32;;;;;;;5.80;1.95;;;0.90;99.90;;;;;;4904934;28;20085;-91
2021/04/13 00:36:09;;;;;;;4.00;2.42;;;0.90;99.90;;;;;;4917078;28;20580;-91
2021/04/13 00:38:34;;;;;;;3.45;1.80;;;1.00;99.90;;;;;;4906949;28;20096;-90
2021/04/13 00:41:06;;;;;;;8.25;2.33;;;0.90;99.90;;;;;;4904433;28;20096;-85
2021/04/13 00:43:29;;;;;;;5.55;1.73;;;0.90;99.90;;;;;;4907747;28;20095;-91
2021/04/13 00:45:53;;;;;;;6.07;1.70;;;0.90;99.90;;;;;;4902241;28;20092;-88
2021/04/13 00:48:24;;;;;;;3.88;1.65;;;0.90;99.90;;;;;;4931453;27;20090;-85
2021/04/13 00:50:52;;;;;;;2.58;1.70;;;0.90;99.90;;;;;;4892883;27;20509;-88
2021/04/13 00:53:18;;;;;;;7.22;2.25;;;0.90;99.90;;;;;;4906800;28;20095;-91
2021/04/13 00:55:46;;;;;;;6.18;1.77;;;0.80;99.90;;;;;;4908326;28;20088;-91
2021/04/13 00:58:14;;;;;;;6.95;1.80;;;;;;;;;;4905860;28;20088;-90
2021/04/13 01:00:41;;;;;;;3.67;2.20;;;0.80;99.90;;;;;;4909343;28;20096;-90
2021/04/13 01:03:04;;;;;;;3.65;2.03;;;0.80;99.90;;;;;;4907996;28;20081;-89
2021/04/13 01:05:38;;;;;;;4.18;2.13;;;0.70;99.90;;;;;;4904720;28;20096;-89
2021/04/13 01:08:16;;;;;;;4.00;1.88;;;0.70;99.90;;;;;;4908406;28;20080;-87
2021/04/13 01:10:39;;;;;;;4.55;1.70;;;0.70;99.90;;;;;;4907332;28;20091;-90
2021/04/13 01:13:06;;;;;;;4.75;2.20;;;0.60;99.90;;;;;;4907019;28;20115;-87
2021/04/13 01:15:31;;;;;;;2.60;1.85;;;0.60;99.90;;;;;;4907326;28;20095;-91
2021/04/13 01:17:54;;;;;;;9.52;2.40;;;0.60;99.90;;;;;;4904921;28;20093;-89
2021/04/13 01:20:32;;;;;;;6.28;2.15;;;0.50;99.90;;;;;;4906769;28;20095;-88
2021/04/13 01:23:00;;;;;;;6.00;1.90;;;0.50;99.90;;;;;;4905223;28;20094;-90
2021/04/13 01:25:27;;;;;;;5.85;1.63;;;0.50;99.90;;;;;;4908859;27;20517;-90
2021/04/13 01:27:53;;;;;;;4.57;1.92;;;0.50;99.90;;;;;;4900921;28;20110;-90
2021/04/13 01:30:18;;;;;;;5.53;2.28;;;0.40;99.90;;;;;;4906568;28;20103;-90
2021/04/13 01:32:41;;;;;;;5.88;1.98;;;;;;;;;;4906011;28;20095;-88
2021/04/13 01:35:11;;;;;;;7.00;1.90;;;0.40;99.90;;;;;;4907076;28;20095;-86
2021/04/13 01:37:48;;;;;;;4.68;2.17;;;0.40;99.90;;;;;;4904874;28;20188;-88
2021/04/13 01:40:19;;;;;;;3.83;1.90;;;0.40;99.90;;;;;;4904135;28;20094;-85
2021/04/13 01:42:43;;;;;;;8.27;2.10;;;0.30;99.90;;;;;;4925609;27;20566;-90
2021/04/13 01:45:09;;;;;;;8.23;1.88;;;0.30;99.90;;;;;;4926950;27;20536;-87
2021/04/13 01:47:33;;;;;;;8.70;2.15;;;0.40;99.90;;;;;;4926226;27;20101;-89
2021/04/13 01:49:59;;;;;;;5.15;2.00;;;0.30;99.90;;;;;;4927711;27;20089;-89
2021/04/13 01:52:27;;;;;;;3.58;1.80;;;0.30;99.90;;;;;;4922875;27;22149;-87
2021/04/13 01:54:51;;;;;;;5.90;2.33;;;0.30;99.90;;;;;;4926988;27;20098;-90
2021/04/13 01:57:23;;;;;;;6.88;2.55;;;0.30;99.90;;;;;;4926816;27;20102;-87
2021/04/13 01:59:52;;;;;;;4.10;1.92;;;0.30;99.90;;;;;;4925290;27;20528;-89
2021/04/13 02:02:19;;;;;;;2.72;1.38;;;0.30;99.90;;;;;;4927435;27;20097;-87
2021/04/13 02:04:48;;;;;;;5.32;1.83;;;0.40;99.90;;;;;;4907759;27;20082;-88
2021/04/13 02:07:26;;;;;;;4.53;1.85;;;0.40;99.90;;;;;;4914937;27;20095;-89
2021/04/13 02:09:51;;;;;;;5.72;2.08;;;;;;;;;;4894497;28;20231;-90
2021/04/13 02:12:17;;;;;;;3.17;1.65;;;;;;;;;;4905726;28;20121;-87
2021/04/13 02:14:45;;;;;;;4.22;1.98;;;0.30;99.90;;;;;;4903314;28;20126;-88
2021/04/13 02:17:13;;;;;;;4.57;1.90;;;0.30;99.90;;;;;;4904897;28;20235;-90
2021/04/13 02:19:37;;;;;;;11.65;2.15;;;0.30;99.90;;;;;;4906636;28;20442;-90
2021/04/13 02:22:07;;;;;;;4.03;2.30;;;0.30;99.90;;;;;;4890644;28;20143;-89
2021/04/13 02:24:33;;;;;;;2.95;1.67;;;0.30;99.90;;;;;;4906242;28;20085;-89
2021/04/13 02:26:59;;;;;;;5.15;1.73;;;0.20;99.90;;;;;;4897979;28;20115;-90
2021/04/13 02:29:27;;;;;;;4.15;1.65;;;0.20;99.90;;;;;;4903425;28;20099;-89
2021/04/13 02:31:59;;;;;;;2.30;1.50;;;0.20;99.90;;;;;;4906400;28;20085;-90
2021/04/13 02:34:27;;;;;;;5.88;1.85;;;0.20;99.90;;;;;;4906261;28;22685;-91
2021/04/13 02:36:52;;;;;;;4.63;2.20;;;0.10;99.90;;;;;;4907735;28;20099;-92
2021/04/13 02:39:16;;;;;;;3.30;1.52;;;0.10;99.90;;;;;;4899382;28;20160;-89
2021/04/13 02:41:53;;;;;;;3.95;2.10;;;0.00;99.90;;;;;;4906030;28;20137;-89
2021/04/13 02:44:18;;;;;;;5.63;2.35;;;0.00;99.90;;;;;;4895496;28;20113;-90
2021/04/13 02:46:42;;;;;;;6.25;1.90;;;0.00;99.90;;;;;;4907372;28;20177;-90
2021/04/13 02:49:07;;;;;;;9.98;1.98;;;0.00;99.90;;;;;;4907855;28;20104;-90
2021/04/13 02:51:32;;;;;;;6.93;2.15;;;0.00;99.90;;;;;;4895824;28;20095;-88
2021/04/13 02:53:56;;;;;;;3.40;1.90;;;-0.10;99.90;;;;;;4904202;28;20094;-85
2021/04/13 02:56:23;;;;;;;4.67;2.17;;;-0.10;99.90;;;;;;4905210;28;20184;-87
2021/04/13 02:59:04;;;;;;;9.18;2.17;;;-0.10;99.90;;;;;;4906724;28;20508;-89
2021/04/13 03:01:26;;;;;;;5.50;2.13;;;-0.10;99.90;;;;;;4904670;28;20583;-91
2021/04/13 03:03:52;;;;;;;7.25;2.90;;;-0.10;99.90;;;;;;4906162;28;20463;-90
2021/04/13 03:06:15;;;;;;;4.28;1.95;;;-0.10;99.90;;;;;;4914859;27;20095;-90
2021/04/13 03:08:40;;;;;;;9.30;2.10;;;-0.10;99.90;;;;;;4920887;27;20095;-88
2021/04/13 03:11:07;;;;;;;5.07;2.17;;;;;;;;;;4921988;27;20142;-89
2021/04/13 03:13:35;;;;;;;7.32;2.30;;;-0.20;99.90;;;;;;4924239;27;20116;-90
2021/04/13 03:16:00;;;;;;;4.95;2.55;;;;;;;;;;4921564;27;20136;-91
2021/04/13 03:18:26;;;;;;;4.78;2.25;;;-0.20;99.90;;;;;;4902889;27;20090;-90
2021/04/13 03:20:52;;;;;;;9.60;2.55;;;-0.20;99.90;;;;;;4906624;28;20121;-89
2021/04/13 03:23:17;;;;;;;5.40;2.20;;;-0.20;99.90;;;;;;4907634;28;20096;-87
2021/04/13 03:25:48;;;;;;;6.00;2.05;;;-0.20;99.90;;;;;;4905324;28;20162;-91
2021/04/13 03:28:14;;;;;;;6.32;2.20;;;-0.20;99.90;;;;;;4905659;28;20085;-90
2021/04/13 03:30:41;;;;;;;6.93;2.25;;;-0.20;99.90;;;;;;4903070;28;20178;-88
2021/04/13 03:33:08;;;;;;;12.82;2.33;;;-0.20;99.90;;;;;;4906381;28;20500;-92
2021/04/13 03:35:32;;;;;;;5.90;2.25;;;-0.20;99.90;;;;;;4906620;28;20156;-91
2021/04/13 03:37:57;;;;;;;6.60;2.20;;;-0.20;99.90;;;;;;4904611;28;20630;-91
2021/04/13 03:40:23;;;;;;;5.03;2.15;;;-0.20;99.90;;;;;;4907060;28;20138;-90
2021/04/13 03:42:47;;;;;;;4.57;1.83;;;;;;;;;;4906323;28;20142;-90
2021/04/13 03:45:14;;;;;;;7.93;2.45;;;-0.20;99.90;;;;;;4912396;27;20113;-91
2021/04/13 03:47:39;;;;;;;6.43;2.58;;;-0.10;99.90;;;;;;4907124;28;20447;-89
2021/04/13 03:50:06;;;;;;;4.68;2.35;;;-0.20;99.90;;;;;;4908426;28;20095;-89
2021/04/13 03:52:32;;;;;;;8.45;2.10;;;-0.10;99.90;;;;;;4907234;28;20095;-91
2021/04/13 03:54:55;;;;;;;5.85;3.08;;;;;;;;;;4908862;28;20431;-91
2021/04/13 03:57:30;;;;;;;10.10;2.20;;;-0.20;99.90;;;;;;4908011;28;20093;-89
2021/04/13 03:59:57;;;;;;;5.97;2.30;;;-0.20;99.90;;;;;;4911213;28;20109;-90
2021/04/13 04:02:19;;;;;;;5.18;2.53;;;-0.20;99.90;;;;;;4908957;28;20103;-89
2021/04/13 04:04:43;;;;;;;9.70;2.78;;;-0.10;99.90;;;;;;4907264;28;20491;-89
2021/04/13 04:07:22;;;;;;;7.10;2.90;;;-0.10;99.90;;;;;;4901051;28;20565;-90
2021/04/13 04:09:45;;;;;;;5.55;2.65;;;-0.10;99.90;;;;;;4927890;27;20583;-90
2021/04/13 04:12:18;;;;;;;5.00;2.40;;;-0.10;99.90;;;;;;4930185;27;20097;-88
2021/04/13 04:14:41;;;;;;;11.52;2.47;;;-0.10;99.90;;;;;;4927728;27;20093;-92
2021/04/13 04:17:06;;;;;;;5.43;1.95;;;-0.10;99.90;;;;;;4924367;27;20099;-88
2021/04/13 04:19:30;;;;;;;8.55;2.42;;;-0.10;99.90;;;;;;4906454;28;20474;-87
2021/04/13 04:21:59;;;;;;;9.80;2.85;;;0.00;99.90;;;;;;4909288;28;20180;-90
2021/04/13 04:24:28;;;;;;;8.80;2.72;;;;;;;;;;4908386;28;20175;-91
2021/04/13 04:26:55;;;;;;;15.05;4.30;;;0.00;99.90;;;;;;4908266;28;20454;-89
2021/04/13 04:29:23;;;;;;;5.47;3.17;;;0.10;99.90;;;;;;4915501;27;20639;-92
2021/04/13 04:31:47;;;;;;;11.93;3.20;;;;;;;;;;4924725;27;20085;-90
2021/04/13 04:34:38;;;;;;;7.78;3.40;;;0.10;99.90;;;;;;4911834;27;20103;-91
2021/04/13 04:37:01;;;;;;;7.53;3.40;;;;;;;;;;4926125;27;20528;-90
2021/04/13 04:39:27;;;;;;;10.35;3.50;;;0.20;99.90;;;;;;4907136;28;20425;-92
2021/04/13 04:41:51;;;;;;;7.43;2.95;;;0.10;99.90;;;;;;4907363;28;20096;-90
2021/04/13 04:44:20;;;;;;;10.32;3.58;;;0.20;99.90;;;;;;4906168;28;20101;-87
2021/04/13 04:46:43;;;;;;;6.28;3.15;;;;;;;;;;4906637;28;20124;-91
2021/04/13 04:49:08;;;;;;;7.20;3.38;;;0.30;99.90;;;;;;4908516;28;20124;-87
2021/04/13 04:51:31;;;;;;;11.77;2.83;;;0.40;99.90;;;;;;4905822;28;20090;-88
2021/04/13 04:53:54;;;;;;;9.07;4.32;;;0.70;99.90;;;;;;4907760;28;20094;-90
2021/04/13 04:56:17;;;;;;;13.48;3.97;;;0.80;99.90;;;;;;4907886;28;20479;-90
2021/04/13 04:58:40;;;;;;;8.05;3.45;;;1.20;99.90;;;;;;4906889;28;20084;-88
2021/04/13 05:01:03;;;;;;;10.57;4.40;;;1.70;99.90;;;;;;4907120;28;20103;-90
2021/04/13 05:03:28;;;;;;;9.50;3.90;;;2.40;99.90;;;;;;4907218;28;20087;-90
2021/04/13 05:05:52;;;;;;;10.55;3.53;;;2.90;99.90;;;;;;4905992;28;20090;-91
2021/04/13 05:08:15;;;;;;;8.63;2.72;;;3.30;99.90;;;;;;4907628;28;20447;-91
2021/04/13 05:10:37;;;;;;;11.00;2.83;;;3.20;99.90;;;;;;4906967;28;20090;-88
2021/04/13 05:13:01;;;;;;;6.50;3.15;;;3.20;99.90;;;;;;4907164;28;20102;-85
2021/04/13 05:15:24;;;;;;;10.73;2.80;;;3.50;99.90;;;;;;4896686;28;20086;-89
2021/04/13 05:17:47;;;;;;;6.53;2.78;;;3.80;99.90;;;;;;4904527;28;20097;-89
2021/04/13 05:20:10;;;;;;;15.60;2.92;;;4.00;99.90;;;;;;4908411;28;20141;-90
2021/04/13 05:22:33;;;;;;;6.90;2.30;;;4.10;99.90;;;;;;4907378;28;20113;-90
2021/04/13 05:24:55;;;;;;;7.00;2.65;;;4.20;99.90;;;;;;4906552;28;20082;-92
2021/04/13 05:27:18;;;;;;;3.95;1.98;;;4.50;99.90;;;;;;4903858;28;20087;-90
2021/04/13 05:29:41;;;;;;;7.30;2.40;;;;;;;;;;4907572;28;20442;-90
2021/04/13 05:32:05;;;;;;;6.32;2.60;;;5.00;99.90;;;;;;4908067;28;20086;-90
2021/04/13 05:34:27;;;;;;;4.30;2.42;;;5.30;99.90;;;;;;4904143;28;20483;-88
2021/04/13 05:36:53;;;;;;;4.25;2.00;;;5.20;99.90;;;;;;4905808;28;20103;-89
2021/04/13 05:39:15;;;;;;;;;;;5.20;99.90;;;;;;4911848;28;20152;-91
2021/04/13 05:41:38;;;;;;;5.22;2.55;;;5.60;99.90;;;;;;4927412;27;19974;-91
2021/04/13 05:44:03;;;;;;;5.80;2.20;;;5.90;99.90;;;;;;4926864;27;20089;-91
2021/04/13 05:46:27;;;;;;;4.38;1.80;;;5.90;99.90;;;;;;4926627;27;20076;-87
2021/04/13 05:48:50;;;;;;;4.28;1.88;;;5.80;99.90;;;;;;4907058;27;20077;-90
2021/04/13 05:51:13;;;;;;;6.75;2.33;;;5.60;99.90;;;;;;4911192;28;20566;-90
2021/04/13 05:53:35;;;;;;;6.88;1.90;;;5.40;99.90;;;;;;4907962;28;20094;-90
2021/04/13 05:55:59;;;;;;;7.05;2.22;;;5.90;99.90;;;;;;4905710;28;20089;-92
2021/04/13 05:58:24;;;;;;;4.65;2.08;;;6.60;99.90;;;;;;4906949;28;20094;-91
2021/04/13 06:00:50;;;;;;;5.60;2.25;;;7.00;99.90;;;;;;4897649;28;20134;-91
2021/04/13 06:03:16;;;;;;;5.20;2.40;;;6.90;99.90;;;;;;4907176;28;20557;-91
2021/04/13 06:05:39;;;;;;;4.28;2.20;;;6.90;99.90;;;;;;4907911;28;20092;-88
2021/04/13 06:08:02;;;;;;;4.45;1.90;;;6.30;99.90;;;;;;4908612;28;20138;-92
2021/04/13 06:10:25;;;;;;;4.85;2.60;;;5.80;99.90;;;;;;4906726;28;20082;-92
2021/04/13 06:12:51;;;;;;;5.15;2.42;;;5.30;99.90;;;;;;4906035;28;20112;-89
2021/04/13 06:15:17;;;;;;;4.43;2.13;;;5.20;99.90;;;;;;4898101;28;20569;-85
2021/04/13 06:17:40;;;;;;;5.47;1.85;;;5.10;99.90;;;;;;4903845;28;20118;-91
2021/04/13 06:20:05;;;;;;;4.97;2.40;;;4.90;99.90;;;;;;4919508;27;20445;-90
2021/04/13 06:22:27;;;;;;;6.10;2.60;;;5.20;99.90;;;;;;4917244;27;20500;-89
2021/04/13 06:24:50;;;;;;;6.47;2.42;;;5.10;99.90;;;;;;4908274;28;20090;-92
2021/04/13 06:27:12;;;;;;;7.47;2.65;;;5.10;99.90;;;;;;4905191;28;20091;-86
2021/04/13 06:29:38;;;;;;;9.45;2.53;;;5.10;99.90;;;;;;4904569;28;20098;-88
2021/04/13 06:32:00;;;;;;;;;;;5.20;99.90;;;;;;4909160;28;20445;-91
2021/04/13 06:34:23;;;;;;;6.45;2.42;;;5.30;99.90;;;;;;4905774;28;19963;-90
2021/04/13 06:36:47;;;;;;;7.20;2.40;;;;;;;;;;4908384;28;20091;-88
2021/04/13 06:39:10;;;;;;;8.98;2.85;;;;;;;;;;4900461;28;20116;-87
2021/04/13 06:41:46;;;;;;;7.68;2.75;;;5.70;99.90;;;;;;4915225;28;20093;-89
2021/04/13 06:44:41;;;;;;;8.18;2.75;;;6.10;99.90;;;;;;4925198;27;20077;-91
2021/04/13 06:47:12;;;;;;;5.22;2.28;;;6.50;99.90;;;;;;4868331;28;20450;-90
2021/04/13 06:49:51;;;;;;;9.10;2.00;;;6.10;99.90;;;;;;4907147;28;20144;-91
2021/04/13 06:52:23;;;;;;;7.38;2.47;;;6.40;99.90;;;;;;4925063;27;20090;-87
2021/04/13 06:54:54;;;;;;;3.38;2.13;;;6.80;99.90;;;;;;4926166;27;20089;-89
2021/04/13 06:57:39;;;;;;;14.73;2.63;;;7.20;99.90;;;;;;4925232;27;20516;-89
2021/04/13 07:00:36;;;;;;;8.60;2.45;;;7.30;99.90;;;;;;4923607;27;20166;-90
2021/04/13 07:03:12;;;;;;;4.68;1.90;;;8.20;99.90;;;;;;4888724;27;20091;-91
2021/04/13 07:05:39;;;;;;;10.13;2.40;;;8.70;99.90;;;;;;4905079;28;20744;-90
2021/04/13 07:08:12;;;;;;;4.97;1.85;;;9.50;99.90;;;;;;4905191;28;20138;-90
2021/04/13 07:10:43;;;;;;;8.15;2.03;;;9.70;99.90;;;;;;4908066;28;20084;-90
2021/04/13 07:13:11;;;;;;;5.57;2.30;;;9.60;99.90;;;;;;4906312;28;20076;-85
2021/04/13 07:15:42;;;;;;;9.75;2.53;;;9.80;99.90;;;;;;4906899;28;20123;-90
2021/04/13 07:18:09;;;;;;;7.10;1.92;;;10.80;99.90;;;;;;4901337;28;20091;-87
2021/04/13 07:20:36;;;;;;;9.70;2.20;;;10.20;99.90;;;;;;4906023;28;20086;-90
2021/04/13 07:23:04;;;;;;;7.72;2.42;;;9.60;99.90;;;;;;4896709;28;20600;-88
2021/04/13 07:25:31;;;;;;;3.08;1.92;;;9.80;99.90;;;;;;4910797;28;20426;-93
2021/04/13 07:27:57;;;;;;;6.20;2.10;;;9.80;99.90;;;;;;4904928;28;20237;-90
2021/04/13 07:30:26;;;;;;;4.45;1.80;;;9.30;99.90;;;;;;4909019;28;20526;-93
2021/04/13 07:32:54;;;;;;;5.78;1.88;;;9.70;99.90;;;;;;4910200;28;20447;-90
2021/04/13 07:35:20;;;;;;;6.53;1.85;;;10.10;99.90;;;;;;4925204;27;20080;-88
2021/04/13 07:37:45;;;;;;;9.38;2.13;;;10.40;99.90;;;;;;4925607;27;20105;-91
2021/04/13 07:40:13;;;;;;;14.57;2.22;;;10.10;99.90;;;;;;4923104;27;20095;-91
2021/04/13 07:42:39;;;;;;;7.28;2.28;;;9.80;99.90;;;;;;4907267;28;20073;-87
2021/04/13 07:45:25;;;;;;;5.28;2.10;;;10.20;99.90;;;;;;4909289;28;20076;-87
2021/04/13 07:48:11;;;;;;;3.95;1.42;;;10.10;99.90;;;;;;4908789;28;20126;-86
2021/04/13 07:50:45;;;;;;;4.25;1.83;;;9.40;99.90;;;;;;4928169;27;20090;-88
2021/04/13 07:53:19;;;;;;;6.05;1.95;;;9.60;99.90;;;;;;4919021;27;20114;-87
2021/04/13 07:55:49;;;;;;;6.38;1.80;;;;;;;;;;4928708;27;20090;-85
2021/04/13 07:58:21;;;;;;;6.00;1.77;;;8.90;99.90;;;;;;4928653;27;20490;-87
2021/04/13 08:00:50;;;;;;;7.97;1.80;;;9.60;99.90;;;;;;4928909;27;20087;-87
2021/04/13 08:03:20;;;;;;;2.60;1.52;;;9.40;99.90;;;;;;4910042;28;21653;-87
2021/04/13 08:05:45;;;;;;;5.40;1.83;;;9.30;99.90;;;;;;4910904;28;20138;-86
2021/04/13 08:08:10;;;;;;;4.27;1.97;;;;;;;;;;4909009;28;20080;-86
2021/04/13 08:10:37;;;;;;;8.48;2.20;;;10.00;99.90;;;;;;4909535;28;20494;-87
2021/04/13 08:13:02;;;;;;;11.38;2.13;;;10.90;99.90;;;;;;4907426;28;20081;-87
2021/04/13 08:15:42;;;;;;;;;;;11.50;99.90;;;;;;4907052;28;20079;-87
2021/04/13 08:18:15;;;;;;;6.22;1.70;;;11.60;99.90;;;;;;4924482;27;19959;-86
2021/04/13 08:20:39;;;;;;;12.57;2.05;;;10.70;99.90;;;;;;4907859;28;20088;-88
2021/04/13 08:23:06;;;;;;;8.30;1.90;;;9.40;99.90;;;;;;4906329;28;20532;-87
2021/04/13 08:25:44;;;;;;;7.22;2.20;;;9.30;99.90;;;;;;4905081;28;21453;-87
2021/04/13 08:28:17;;;;;;;12.40;2.17;;;9.90;99.90;;;;;;4903270;28;20076;-85
2021/04/13 08:32:49;;;;;;;6.55;1.90;;;10.10;99.90;;;;;;4906229;28;20088;-86
2021/04/13 08:33:48;;;;;;;10.10;2.30;;;10.60;99.90;;;;;;4928025;27;20092;-86
2021/04/13 08:36:15;;;;;;;4.22;1.80;;;10.40;99.90;;;;;;4908678;28;20130;-88
2021/04/13 08:38:54;;;;;;;9.20;2.00;;;11.30;99.90;;;;;;4908726;28;20104;-86
2021/04/13 08:41:31;;;;;;;6.47;2.00;;;10.70;99.90;;;;;;4927372;27;20090;-85
2021/04/13 08:44:01;;;;;;;8.20;1.92;;;10.80;99.90;;;;;;4927862;27;20076;-84
2021/04/13 08:46:30;;;;;;;6.32;2.15;;;10.90;99.90;;;;;;4927231;27;20645;-92
2021/04/13 08:49:02;;;;;;;10.10;2.10;;;10.50;99.90;;;;;;4919562;27;20095;-90
2021/04/13 08:51:37;;;;;;;9.02;2.70;;;10.40;99.90;;;;;;4929200;27;20094;-91
2021/04/13 08:54:07;;;;;;;8.80;1.80;;;10.20;99.90;;;;;;4909306;28;20080;-91
2021/04/13 08:56:31;;;;;;;8.43;1.95;;;10.10;99.90;;;;;;4906803;28;20087;-93
2021/04/13 08:58:56;;;;;;;6.88;1.90;;;9.90;99.90;;;;;;4907873;28;20099;-90
2021/04/13 09:01:39;;;;;;;5.55;1.92;;;10.20;99.90;;;;;;4869346;28;20122;-91
2021/04/13 09:04:46;;;;;;;3.53;1.75;;;10.40;99.90;;;;;;4851998;27;20086;-93
2021/04/13 09:07:51;;;;;;;9.30;1.90;;;10.20;99.90;;;;;;4864128;27;20605;-91
2021/04/13 09:10:57;;;;;;;11.15;2.60;;;10.30;99.90;;;;;;4848674;28;20096;-91
2021/04/13 09:14:02;;;;;;;11.52;2.20;;;10.70;99.90;;;;;;4876228;27;20091;-86
2021/04/13 09:23:39;;;;;;;10.18;1.95;;;8.80;99.90;;;;;;4876571;27;20100;-90
2021/04/13 09:30:05;;;;;;;8.93;2.40;;;9.70;99.90;;;;;;4861289;27;20104;-90
2021/04/13 09:33:07;;;;;;;10.18;1.95;;;9.40;99.90;;;;;;4865996;27;20519;-91
2021/04/13 09:39:53;;;;;;;8.13;1.50;;;10.50;99.90;;;;;;4862753;27;20098;-93
2021/04/13 09:43:11;;;;;;;12.82;2.17;;;9.90;99.90;;;;;;4842516;27;20097;-90
2021/04/13 09:46:18;;;;;;;6.87;2.10;;;9.90;99.90;;;;;;4859930;27;20116;-91
2021/04/13 09:53:25;;;;;;;14.57;2.28;;;10.40;99.90;;;;;;4875957;27;20091;-91
2021/04/13 10:38:42;;;;;;;14.05;2.63;;;8.20;99.90;;;;;;4855364;27;20163;-89
2021/04/13 10:45:10;;;;;;;9.38;2.03;;;9.00;99.90;;;;;;4852988;27;20501;-92
2021/04/13 10:48:13;;;;;;;13.20;2.67;;;9.10;99.90;;;;;;4867934;27;20080;-91
2021/04/13 10:51:19;;;;;;;12.13;2.63;;;8.80;99.90;;;;;;4863205;28;20095;-88
2021/04/13 10:54:34;;;;;;;13.05;2.45;;;9.60;99.90;;;;;;4848305;27;20088;-89
2021/04/13 10:57:30;;;;;;;12.13;2.15;;;10.00;99.90;;;;;;4910901;27;20095;-92
2021/04/13 11:00:10;;;;;;;12.05;2.45;;;9.90;99.90;;;;;;4926288;27;20091;-91
2021/04/13 11:02:59;;;;;;;13.82;2.10;;;9.90;99.90;;;;;;4922103;27;20094;-91
2021/04/13 11:05:59;;;;;;;13.07;2.05;;;10.00;99.90;;;;;;4899748;27;20142;-90
2021/04/13 11:09:09;;;;;;;6.90;1.40;;;10.80;99.90;;;;;;4909988;27;20092;-92
2021/04/13 11:12:11;;;;;;;15.55;2.28;;;11.10;99.90;;;;;;4924290;27;20108;-92
2021/04/13 11:15:03;;;;;;;10.32;2.00;;;10.70;99.90;;;;;;4902595;27;20084;-92
2021/04/13 11:17:51;;;;;;;11.50;2.50;;;10.60;99.90;;;;;;4925321;27;20097;-91
2021/04/13 11:20:26;;;;;;;13.38;2.13;;;10.90;99.90;;;;;;4915330;27;20530;-92
2021/04/13 11:23:17;;;;;;;28.90;3.00;;;10.90;99.90;;;;;;4906146;28;20107;-91
2021/04/13 11:26:16;;;;;;;11.75;1.90;;;11.00;99.90;;;;;;4925053;27;20137;-92
2021/04/13 11:29:33;;;;;;;8.75;2.10;;;10.20;99.90;;;;;;4903503;28;20092;-92
2021/04/13 11:32:28;;;;;;;17.67;2.00;;;9.70;99.90;;;;;;4923321;27;20072;-91
2021/04/13 11:35:03;;;;;;;8.30;2.00;;;9.50;99.90;;;;;;4893407;28;20564;-92
2021/04/13 11:37:50;;;;;;;8.98;1.70;;;9.30;99.90;;;;;;4902896;28;20083;-92
2021/04/13 11:40:28;;;;;;;14.73;2.15;;;9.60;99.90;;;;;;4903700;28;20161;-93
2021/04/13 11:42:55;;;;;;;8.88;2.08;;;9.50;99.90;;;;;;4904891;28;20114;-92
2021/04/13 11:45:30;;;;;;;9.32;1.63;;;9.60;99.90;;;;;;4905872;28;20108;-92
2021/04/13 11:47:58;;;;;;;8.60;1.98;;;9.60;99.90;;;;;;4884965;28;20080;-91
2021/04/13 11:50:29;;;;;;;9.02;1.83;;;9.20;99.90;;;;;;4883581;28;20088;-90
2021/04/13 11:52:54;;;;;;;11.88;1.48;;;8.60;99.90;;;;;;4884620;28;20140;-90
2021/04/13 11:55:43;;;;;;;1.77;0.50;;;7.30;99.90;;;;;;4882109;28;20085;-89
2021/04/13 11:58:11;;;;;;;7.60;2.35;;;6.50;99.90;;;;;;4908081;28;20091;-90
2021/04/13 12:00:34;;;;;;;9.80;1.45;;;6.90;99.90;;;;;;4907689;28;20118;-92
2021/04/13 12:03:23;;;;;;;10.27;1.38;;;7.10;99.90;;;;;;4889305;28;20088;-91
2021/04/13 12:05:49;;;;;;;7.18;1.15;;;7.20;99.90;;;;;;4885088;28;20091;-91
2021/04/13 12:08:47;;;;;;;12.38;1.20;;;6.90;99.90;;;;;;4884822;28;20167;-92
2021/04/13 12:11:12;;;;;;;11.25;1.02;;;6.80;99.90;;;;;;4901587;28;20551;-90
2021/04/13 12:13:40;;;;;;;8.05;1.13;;;6.80;99.90;;;;;;4887789;28;20088;-89
2021/04/13 12:16:04;;;;;;;10.05;1.27;;;7.40;99.90;;;;;;4887294;28;20115;-93
2021/04/13 12:19:10;;;;;;;3.63;0.70;;;8.10;99.90;;;;;;4888733;28;20540;-93
2021/04/13 12:21:56;;;;;;;7.15;0.85;;;8.80;99.90;;;;;;4902502;28;20089;-91
2021/04/13 12:24:42;;;;;;;7.00;0.90;;;9.40;99.90;;;;;;4886284;28;20085;-91
2021/04/13 12:27:19;;;;;;;;;;;9.50;99.90;;;;;;4892535;28;20488;-91
2021/04/13 12:29:42;;;;;;;10.55;1.17;;;9.50;99.90;;;;;;4889822;28;20007;-90
2021/04/13 12:32:27;;;;;;;6.18;1.20;;;9.80;99.90;;;;;;4887971;28;20570;-92
2021/04/13 12:34:53;;;;;;;5.65;0.98;;;8.60;99.90;;;;;;4874568;28;23233;-90
2021/04/13 12:37:42;;;;;;;13.30;1.00;;;7.90;99.90;;;;;;4899248;28;20102;-92
2021/04/13 12:40:28;;;;;;;8.45;1.02;;;7.80;99.90;;;;;;4906745;28;20521;-92
2021/04/13 12:42:54;;;;;;;6.50;1.33;;;7.80;99.90;;;;;;4908463;28;20081;-90
2021/04/13 12:45:42;;;;;;;12.75;1.23;;;8.00;99.90;;;;;;4897627;28;20089;-92
2021/04/13 12:48:11;;;;;;;7.13;1.17;;;;;;;;;;4888330;28;20085;-90
2021/04/13 12:50:39;;;;;;;12.18;1.20;;;9.50;99.90;;;;;;4888939;28;20088;-91
2021/04/13 12:53:08;;;;;;;13.95;1.45;;;10.20;99.90;;;;;;4887716;28;20085;-91
2021/04/13 12:55:31;;;;;;;7.80;0.95;;;10.10;99.90;;;;;;4888408;28;20080;-91
2021/04/13 12:57:56;;;;;;;8.25;1.20;;;10.40;99.90;;;;;;4911591;28;20085;-87
2021/04/13 13:00:19;;;;;;;;;;;;;;;;;;4891914;28;20142;-84
2021/04/13 13:02:43;;;;;;;3.30;0.52;;;9.90;99.90;;;;;;4889475;28;19969;-88
2021/04/13 13:05:22;;;;;;;1.02;0.30;;;9.80;99.90;;;;;;4883982;28;20435;-88
2021/04/13 13:07:52;;;;;;;3.05;0.63;;;9.60;99.90;;;;;;4911661;28;20088;-88
2021/04/13 13:10:16;;;;;;;4.60;0.80;;;9.40;99.90;;;;;;4891736;28;20093;-91
2021/04/13 13:12:39;;;;;;;4.93;0.60;;;9.20;99.90;;;;;;4888750;28;20081;-88
2021/04/13 13:15:05;;;;;;;4.13;0.82;;;9.60;99.90;;;;;;4886085;28;20099;-91
2021/04/13 13:17:28;;;;;;;;;;;9.80;99.90;;;;;;4887105;28;20097;-92
2021/04/13 13:19:52;;;;;;;4.15;0.77;;;10.20;99.90;;;;;;4887159;28;20316;-91
2021/04/13 13:22:19;;;;;;;4.28;0.70;;;9.70;99.90;;;;;;4884993;28;20082;-89
2021/04/13 13:24:43;;;;;;;4.82;0.73;;;9.70;99.90;;;;;;4886943;28;20080;-93
2021/04/13 13:27:17;;;;;;;9.77;1.17;;;10.00;99.90;;;;;;4886738;28;20623;-89
2021/04/13 13:29:41;;;;;;;8.20;1.20;;;9.60;99.90;;;;;;4907786;28;20080;-90
2021/04/13 13:32:05;;;;;;;6.63;1.20;;;9.70;99.90;;;;;;4902905;28;20095;-92
2021/04/13 13:34:27;;;;;;;7.40;0.75;;;9.60;99.90;;;;;;4916966;28;20136;-90
2021/04/13 13:36:51;;;;;;;6.63;1.10;;;9.40;99.90;;;;;;4908414;28;20122;-86
2021/04/13 13:39:18;;;;;;;4.03;0.77;;;9.50;99.90;;;;;;4908550;28;20084;-85
2021/04/13 13:41:43;;;;;;;2.58;0.45;;;10.50;99.90;;;;;;4906185;28;20096;-89
2021/04/13 13:44:17;;;;;;;4.90;0.52;;;8.60;99.90;;;;;;4906431;28;20085;-91
2021/04/13 13:46:41;;;;;;;3.75;0.45;;;;;;;;;;4908866;28;20088;-89
2021/04/13 13:49:19;;;;;;;6.82;0.63;;;8.60;99.90;;;;;;4909619;28;20142;-90
2021/04/13 13:51:57;;;;;;;10.35;1.25;;;8.60;99.90;;;;;;4904663;28;20496;-89
2021/04/13 13:54:23;;;;;;;5.75;0.70;;;8.90;99.90;;;;;;4884805;28;20577;-91
2021/04/13 13:56:47;;;;;;;5.70;0.50;;;9.20;99.90;;;;;;4894075;28;20113;-91
2021/04/13 13:59:24;;;;;;;3.38;0.68;;;9.10;99.90;;;;;;4884195;28;20090;-89
2021/04/13 14:02:00;;;;;;;2.90;0.55;;;8.80;99.90;;;;;;4886903;28;20167;-92
2021/04/13 14:04:28;;;;;;;5.60;0.60;;;8.80;99.90;;;;;;4886944;28;20089;-90
2021/04/13 14:06:50;;;;;;;6.72;0.80;;;9.30;99.90;;;;;;4902817;28;20089;-91
2021/04/13 14:09:16;;;;;;;6.60;1.08;;;9.40;99.90;;;;;;4906596;28;20096;-92
2021/04/13 14:11:39;;;;;;;4.50;0.95;;;9.40;99.90;;;;;;4906403;28;20503;-92
2021/04/13 14:14:04;;;;;;;9.18;0.60;;;9.50;99.90;;;;;;4895978;28;20465;-89
2021/04/13 14:16:38;;;;;;;6.45;0.73;;;9.60;99.90;;;;;;4907127;28;20080;-89
2021/04/13 14:19:01;;;;;;;0.90;0.40;;;;;;;;;;4906511;28;20643;-88
2021/04/13 14:21:34;;;;;;;4.78;0.47;;;9.80;99.90;;;;;;4908545;28;20080;-91
2021/04/13 14:24:11;;;;;;;6.72;1.02;;;9.40;99.90;;;;;;4904439;28;20080;-91
2021/04/13 14:26:33;;;;;;;;;;;9.00;99.90;;;;;;4906259;28;20092;-91